Time;durP1;ratioP1;P1;durP2;ratioP2;P2;SDS_P1;SDS_P2;PMS_P1;PMS_P2;Temp;Humidity;BMP_temperature;BMP_pressure;BME280_temperature;BME280_humidity;BME280_pressure;Samples;Min_cycle;Max_cycle;Signal;HPM_P1;HPM_P2
2021/07/15 02:46:29;;;;;;;5.95;5.35;;;14.00;99.90;;;;;;5989246;23;89647;31
2021/07/15 02:48:54;;;;;;;5.68;5.18;;;14.00;99.90;;;;;;4888949;28;86902;-87
2021/07/15 02:51:20;;;;;;;4.75;4.35;;;14.10;99.90;;;;;;4892964;28;85762;-86
2021/07/15 02:53:46;;;;;;;5.10;4.60;;;14.10;99.90;;;;;;4890738;28;87468;-87
2021/07/15 02:56:28;;;;;;;5.10;4.63;;;14.10;99.90;;;;;;4890653;28;87010;-85
2021/07/15 02:59:19;;;;;;;4.32;4.00;;;14.00;99.90;;;;;;4891298;28;87769;-86
2021/07/15 03:01:51;;;;;;;4.32;3.92;;;14.00;99.90;;;;;;4872755;29;86967;-87
2021/07/15 03:04:29;;;;;;;3.50;3.20;;;14.00;99.90;;;;;;4887143;28;88179;-88
2021/07/15 03:06:56;;;;;;;3.63;3.33;;;14.00;99.90;;;;;;4897382;28;87218;-88
2021/07/15 03:09:30;;;;;;;3.55;2.88;;;14.00;99.90;;;;;;4891869;28;87060;-87
2021/07/15 03:12:11;;;;;;;4.55;2.78;;;14.00;99.90;;;;;;4891474;28;86617;-87
2021/07/15 03:14:38;;;;;;;;;;;14.00;99.90;;;;;;4892470;28;88205;-89
2021/07/15 03:17:08;;;;;;;2.85;2.55;;;14.00;99.90;;;;;;4892997;28;87322;-89
2021/07/15 03:19:37;;;;;;;2.33;2.13;;;14.00;99.90;;;;;;4891451;28;86955;-86
2021/07/15 03:22:07;;;;;;;2.90;2.53;;;14.00;99.90;;;;;;4889071;28;87028;-87
2021/07/15 03:24:36;;;;;;;2.22;2.13;;;13.90;99.90;;;;;;4888711;28;88364;-86
2021/07/15 03:27:04;;;;;;;2.60;2.40;;;14.00;99.90;;;;;;4889648;28;89313;-87
2021/07/15 03:29:32;;;;;;;2.42;2.22;;;13.90;99.90;;;;;;4876132;28;87116;-86
2021/07/15 03:32:00;;;;;;;3.63;2.33;;;14.00;99.90;;;;;;4891318;28;86795;-85
2021/07/15 03:34:30;;;;;;;2.30;2.10;;;13.90;99.90;;;;;;4890430;28;86602;-89
2021/07/15 03:36:56;;;;;;;2.40;2.20;;;13.90;99.90;;;;;;4889818;28;87175;-88
2021/07/15 03:39:22;;;;;;;2.38;2.17;;;13.90;99.90;;;;;;4890735;28;87037;-89
2021/07/15 03:41:48;;;;;;;3.13;2.83;;;13.90;99.90;;;;;;4890393;28;86166;-86
2021/07/15 03:44:14;;;;;;;3.47;2.55;;;13.80;99.90;;;;;;4889482;28;88937;-85
2021/07/15 03:46:41;;;;;;;2.83;2.63;;;13.80;99.90;;;;;;4889374;28;87110;-85
2021/07/15 03:49:08;;;;;;;2.53;2.35;;;13.80;99.90;;;;;;4887503;28;87859;-85
2021/07/15 03:51:35;;;;;;;2.70;2.50;;;13.70;99.90;;;;;;4877998;28;87055;-86
2021/07/15 03:54:02;;;;;;;3.63;2.63;;;13.70;99.90;;;;;;4879313;28;87005;-87
2021/07/15 03:56:30;;;;;;;2.83;2.60;;;13.70;99.90;;;;;;4884634;28;87024;-85
2021/07/15 03:59:01;;;;;;;4.90;2.97;;;13.70;99.90;;;;;;4885770;28;87035;-88
2021/07/15 04:01:31;;;;;;;3.00;2.70;;;13.70;99.90;;;;;;4875790;28;87001;-87
2021/07/15 04:04:00;;;;;;;2.58;2.38;;;13.70;99.90;;;;;;4873589;28;87313;-87
2021/07/15 04:06:29;;;;;;;3.42;2.30;;;13.70;99.90;;;;;;4879242;28;87412;-88
2021/07/15 04:08:57;;;;;;;2.67;2.47;;;13.70;99.90;;;;;;4883698;28;86720;-86
2021/07/15 04:11:24;;;;;;;2.60;2.40;;;13.70;99.90;;;;;;4884242;28;87058;-87
2021/07/15 04:13:51;;;;;;;4.05;2.95;;;13.70;99.90;;;;;;4883546;28;88144;-86
2021/07/15 04:16:44;;;;;;;3.10;2.50;;;13.70;99.90;;;;;;4880250;28;87355;-87
2021/07/15 04:19:12;;;;;;;3.35;2.28;;;13.70;99.90;;;;;;4882852;28;87093;-86
2021/07/15 04:21:39;;;;;;;2.42;2.22;;;13.70;99.90;;;;;;4886308;28;86842;-87
2021/07/15 04:24:06;;;;;;;2.75;2.50;;;13.70;99.90;;;;;;4886057;28;87779;-87
2021/07/15 04:26:32;;;;;;;2.70;2.50;;;13.80;99.90;;;;;;4881882;28;86951;-87
2021/07/15 04:28:59;;;;;;;2.60;2.40;;;13.80;99.90;;;;;;4881173;28;86915;-87
2021/07/15 04:31:57;;;;;;;2.45;2.25;;;13.70;99.90;;;;;;4873148;28;86324;-89
2021/07/15 04:34:26;;;;;;;2.97;2.10;;;13.70;99.90;;;;;;4857184;28;87834;-85
2021/07/15 04:36:54;;;;;;;3.55;2.63;;;13.80;99.90;;;;;;4873462;28;87765;-87
2021/07/15 04:39:23;;;;;;;2.60;2.40;;;13.70;99.90;;;;;;4879660;28;87866;-85
2021/07/15 04:41:49;;;;;;;2.50;2.30;;;13.80;99.90;;;;;;4886219;28;87039;-87
2021/07/15 04:44:15;;;;;;;2.80;2.60;;;12.90;99.90;;;;;;4886887;28;87275;-85
2021/07/15 04:46:41;;;;;;;3.05;2.10;;;13.80;99.90;;;;;;4878944;28;87050;-87
2021/07/15 04:49:08;;;;;;;2.53;2.33;;;13.90;99.90;;;;;;4877424;28;87027;-89
2021/07/15 04:51:39;;;;;;;2.92;2.65;;;14.00;99.90;;;;;;4886747;28;87004;-85
2021/07/15 04:54:05;;;;;;;;;;;14.00;99.90;;;;;;4888021;28;87118;-87
2021/07/15 04:56:32;;;;;;;2.58;2.38;;;14.00;99.90;;;;;;4895037;28;86214;-85
2021/07/15 04:58:59;;;;;;;3.20;2.90;;;14.00;99.90;;;;;;4878969;28;86917;-86
2021/07/15 05:01:26;;;;;;;3.35;3.10;;;;;;;;;;4885302;28;87109;-87
2021/07/15 05:03:52;;;;;;;4.35;2.75;;;14.10;99.90;;;;;;4886906;28;87973;-86
2021/07/15 05:06:21;;;;;;;4.57;2.80;;;;;;;;;;4874144;28;88045;-85
2021/07/15 05:08:47;;;;;;;4.22;2.40;;;14.50;99.90;;;;;;4874661;28;86963;-85
2021/07/15 05:11:13;;;;;;;2.95;2.65;;;;;;;;;;4878882;28;86675;-86
2021/07/15 05:13:38;;;;;;;4.05;2.65;;;14.60;99.90;;;;;;4881971;28;87226;-84
2021/07/15 05:16:05;;;;;;;6.95;6.53;;;14.60;99.90;;;;;;4750884;28;3824204;-87
2021/07/15 05:18:32;;;;;;;6.78;6.28;;;14.80;99.90;;;;;;4956971;28;20040;-86
2021/07/15 05:20:58;;;;;;;6.78;6.38;;;;;;;;;;4967057;28;20089;-86
2021/07/15 05:23:24;;;;;;;7.13;6.78;;;;;;;;;;4972019;28;20036;-86
2021/07/15 05:25:52;;;;;;;6.28;5.97;;;14.60;99.90;;;;;;4975513;28;20095;-85
2021/07/15 05:28:18;;;;;;;6.60;6.30;;;14.80;99.90;;;;;;4958447;28;20520;-86
2021/07/15 05:30:45;;;;;;;6.40;5.97;;;;;;;;;;4969507;28;20043;-87
2021/07/15 05:33:11;;;;;;;7.53;7.13;;;;;;;;;;4964866;28;20497;-88
2021/07/15 05:35:39;;;;;;;6.45;6.05;;;14.70;99.90;;;;;;4968364;28;20067;-87
2021/07/15 05:38:05;;;;;;;6.78;6.47;;;;;;;;;;4965858;28;20067;-87
2021/07/15 05:40:31;;;;;;;6.35;6.05;;;14.90;99.90;;;;;;4959733;28;20048;-87
2021/07/15 05:42:58;;;;;;;6.55;6.05;;;;;;;;;;4959639;28;20050;-88
2021/07/15 05:45:24;;;;;;;5.57;5.28;;;;;;;;;;4972090;28;20091;-88
2021/07/15 05:47:50;;;;;;;5.63;5.32;;;;;;;;;;4970395;28;20096;-87
2021/07/15 05:50:16;;;;;;;6.18;5.88;;;;;;;;;;4971728;28;20036;-87
2021/07/15 05:52:42;;;;;;;5.65;5.45;;;;;;;;;;4964189;28;20556;-88
2021/07/15 05:55:08;;;;;;;5.47;5.07;;;;;;;;;;4955908;28;20040;-88
2021/07/15 05:57:34;;;;;;;6.00;5.50;;;;;;;;;;4964805;28;20065;-85
2021/07/15 06:00:01;;;;;;;6.60;6.30;;;14.80;99.90;;;;;;4964404;28;20505;-87
2021/07/15 06:02:27;;;;;;;5.70;5.43;;;;;;;;;;4971427;28;20032;-87
2021/07/15 06:04:53;;;;;;;3.30;3.00;;;15.10;99.90;;;;;;4966721;28;20067;-84
2021/07/15 06:07:19;;;;;;;3.35;3.15;;;;;;;;;;4968660;28;20572;-86
2021/07/15 06:09:44;;;;;;;4.10;3.80;;;14.50;99.90;;;;;;4969821;28;20054;-87
2021/07/15 06:12:10;;;;;;;3.75;3.45;;;;;;;;;;4966212;28;20480;-86
2021/07/15 06:14:37;;;;;;;3.40;3.30;;;15.50;99.90;;;;;;4968765;28;20043;-86
2021/07/15 06:17:03;;;;;;;4.13;3.53;;;14.60;99.90;;;;;;4963467;28;20540;-85
2021/07/15 06:19:29;;;;;;;3.92;3.72;;;15.40;99.90;;;;;;4965208;28;20035;-86
2021/07/15 06:21:55;;;;;;;4.30;4.00;;;14.50;99.90;;;;;;4968733;28;20052;-85
2021/07/15 06:24:21;;;;;;;3.95;3.75;;;;;;;;;;4968787;28;20043;-84
2021/07/15 06:26:48;;;;;;;4.95;4.55;;;;;;;;;;4966207;28;20040;-85
2021/07/15 06:29:14;;;;;;;4.47;4.28;;;14.70;99.90;;;;;;4968181;28;20043;-85
2021/07/15 06:31:41;;;;;;;3.78;3.58;;;;;;;;;;4968291;28;20044;-86
2021/07/15 06:34:07;;;;;;;4.82;3.60;;;15.50;99.90;;;;;;4970093;28;20102;-85
2021/07/15 06:36:33;;;;;;;3.85;3.65;;;;;;;;;;4967751;28;20071;-83
2021/07/15 06:38:59;;;;;;;3.90;3.70;;;;;;;;;;4969111;28;20042;-85
2021/07/15 06:41:25;;;;;;;3.50;3.30;;;15.50;99.90;;;;;;4962977;28;20044;-85
2021/07/15 06:43:51;;;;;;;4.07;3.75;;;15.40;99.90;;;;;;4970056;28;20062;-86
2021/07/15 06:46:17;;;;;;;5.25;4.03;;;13.70;99.90;;;;;;4967177;28;20043;-84
2021/07/15 06:48:43;;;;;;;4.60;4.30;;;;;;;;;;4963560;28;20050;-82
2021/07/15 06:51:09;;;;;;;4.20;3.85;;;14.50;99.90;;;;;;4969488;28;20040;-86
2021/07/15 06:53:35;;;;;;;3.85;3.65;;;15.70;99.90;;;;;;4961844;28;20044;-84
2021/07/15 06:56:01;;;;;;;4.43;4.18;;;;;;;;;;4961681;28;20512;-84
2021/07/15 06:58:28;;;;;;;3.80;3.60;;;14.90;99.90;;;;;;4968028;28;20039;-84
2021/07/15 07:00:57;;;;;;;4.30;4.00;;;15.10;99.90;;;;;;4965233;28;20047;-86
2021/07/15 07:03:26;;;;;;;4.93;4.63;;;15.00;99.90;;;;;;4968684;28;20058;-85
2021/07/15 07:05:53;;;;;;;4.68;4.38;;;14.30;99.90;;;;;;4960203;28;20044;-84
2021/07/15 07:08:19;;;;;;;4.40;4.00;;;15.70;99.90;;;;;;4965844;28;20047;-85
2021/07/15 07:10:45;;;;;;;3.80;3.60;;;;;;;;;;4959661;28;20052;-87
2021/07/15 07:13:11;;;;;;;4.53;4.32;;;15.70;99.90;;;;;;4968900;28;20078;-85
2021/07/15 07:15:37;;;;;;;4.20;4.00;;;;;;;;;;4965521;28;20481;-84
2021/07/15 07:18:03;;;;;;;5.20;4.00;;;;;;;;;;4966975;28;20529;-83
2021/07/15 07:20:32;;;;;;;4.50;4.25;;;15.70;99.90;;;;;;4959534;28;20039;-86
2021/07/15 07:22:58;;;;;;;4.20;3.80;;;14.90;99.90;;;;;;4970505;28;20040;-84
2021/07/15 07:25:24;;;;;;;4.13;3.92;;;;;;;;;;4966731;28;20101;-85
2021/07/15 07:27:49;;;;;;;4.10;3.80;;;16.00;99.90;;;;;;4955419;28;20187;-85
2021/07/15 07:30:17;;;;;;;4.30;4.00;;;15.60;99.90;;;;;;4967662;28;20075;-85
2021/07/15 07:32:44;;;;;;;3.85;3.63;;;16.10;99.90;;;;;;4961399;28;20051;-84
2021/07/15 07:35:11;;;;;;;4.18;3.97;;;15.40;99.90;;;;;;4956964;28;20587;-85
2021/07/15 07:37:37;;;;;;;4.13;3.83;;;;;;;;;;4965941;28;20043;-86
2021/07/15 07:40:07;;;;;;;3.63;3.30;;;15.40;99.90;;;;;;4956752;28;20091;-85
2021/07/15 07:42:33;;;;;;;3.75;3.55;;;14.70;99.90;;;;;;4969265;28;20047;-86
2021/07/15 07:44:59;;;;;;;3.38;3.22;;;;;;;;;;4962498;28;20039;-87
2021/07/15 07:47:24;;;;;;;4.05;3.72;;;15.40;99.90;;;;;;4971717;28;20051;-85
2021/07/15 07:49:50;;;;;;;3.80;3.60;;;;;;;;;;4969841;28;20054;-85
2021/07/15 07:52:16;;;;;;;3.53;3.33;;;16.60;99.90;;;;;;4967277;28;20039;-87
2021/07/15 07:54:42;;;;;;;3.78;3.63;;;;;;;;;;4969769;28;20099;-85
2021/07/15 07:57:10;;;;;;;3.65;3.35;;;15.40;99.90;;;;;;4971400;28;20024;-86
2021/07/15 07:59:36;;;;;;;3.25;3.15;;;16.50;99.90;;;;;;4972127;28;20047;-86
2021/07/15 08:02:02;;;;;;;3.75;3.55;;;16.50;99.90;;;;;;4963847;28;20040;-86
2021/07/15 08:04:28;;;;;;;4.13;3.92;;;;;;;;;;4969858;28;20042;-86
2021/07/15 08:06:54;;;;;;;3.85;3.55;;;16.70;99.90;;;;;;4967983;28;20047;-86
2021/07/15 08:09:23;;;;;;;3.78;3.55;;;16.30;99.90;;;;;;4960851;28;20054;-86
2021/07/15 08:11:52;;;;;;;3.78;3.58;;;16.30;99.90;;;;;;4968599;28;20076;-85
2021/07/15 08:14:18;;;;;;;4.45;4.15;;;;;;;;;;4964818;28;20055;-87
2021/07/15 08:16:46;;;;;;;3.75;3.45;;;;;;;;;;4961551;28;20048;-84
2021/07/15 08:19:11;;;;;;;4.00;3.70;;;15.60;99.90;;;;;;4966541;28;20126;-85
2021/07/15 08:21:37;;;;;;;3.80;3.60;;;;;;;;;;4968134;28;20075;-87
2021/07/15 08:24:04;;;;;;;4.10;3.78;;;15.40;99.90;;;;;;4969727;28;20043;-86
2021/07/15 08:26:29;;;;;;;3.97;3.78;;;14.90;99.90;;;;;;4967386;28;20071;-85
2021/07/15 08:28:55;;;;;;;3.20;3.00;;;15.30;99.90;;;;;;4963130;28;20047;-86
2021/07/15 08:31:23;;;;;;;3.50;3.20;;;15.70;99.90;;;;;;4969352;28;20047;-85
2021/07/15 08:33:49;;;;;;;4.00;3.70;;;;;;;;;;4970306;28;20075;-87
2021/07/15 08:36:15;;;;;;;3.85;3.65;;;16.10;99.90;;;;;;4964041;28;20042;-86
2021/07/15 08:38:41;;;;;;;5.00;4.70;;;;;;;;;;4957281;28;20047;-86
2021/07/15 08:41:08;;;;;;;4.55;4.25;;;15.80;99.90;;;;;;4973606;28;20039;-85
2021/07/15 08:43:34;;;;;;;4.35;4.13;;;16.10;99.90;;;;;;4974355;28;20036;-86
2021/07/15 08:46:02;;;;;;;3.72;3.40;;;;;;;;;;4957835;28;20048;-85
2021/07/15 08:48:28;;;;;;;3.72;3.53;;;15.30;99.90;;;;;;4952306;28;20060;-84
2021/07/15 08:50:54;;;;;;;3.88;3.65;;;;;;;;;;4955550;28;20116;-86
2021/07/15 08:53:22;;;;;;;3.85;3.55;;;15.90;99.90;;;;;;4951201;28;20443;-86
2021/07/15 08:58:32;;;;;;;3.67;3.45;;;;;;;;;;4952441;28;20561;-84
2021/07/15 09:00:58;;;;;;;4.25;3.75;;;15.80;99.90;;;;;;4959712;28;20055;-85
2021/07/15 09:03:24;;;;;;;3.60;3.40;;;16.20;99.90;;;;;;4956177;28;20106;-86
2021/07/15 09:05:49;;;;;;;3.72;3.53;;;16.40;99.90;;;;;;4965165;28;20110;-86
2021/07/15 09:08:15;;;;;;;4.32;3.92;;;;;;;;;;4961271;28;20442;-85
2021/07/15 09:10:42;;;;;;;3.95;3.72;;;;;;;;;;4951782;28;20032;-85
2021/07/15 09:13:07;;;;;;;4.25;3.90;;;15.90;99.90;;;;;;4963980;28;20834;-85
2021/07/15 09:15:33;;;;;;;3.90;3.70;;;16.30;99.90;;;;;;4951229;28;20051;-87
2021/07/15 09:17:59;;;;;;;3.83;3.63;;;17.00;99.90;;;;;;4949776;28;20044;-83
2021/07/15 09:20:27;;;;;;;3.90;3.67;;;16.30;99.90;;;;;;4950611;28;20047;-85
2021/07/15 09:23:00;;;;;;;4.00;3.80;;;16.70;99.90;;;;;;4959109;28;20650;-85
2021/07/15 09:25:46;;;;;;;4.50;4.10;;;16.90;99.90;;;;;;4957666;28;20047;-87
2021/07/15 09:28:14;;;;;;;3.65;3.45;;;16.10;99.90;;;;;;4961262;28;20230;-87
2021/07/15 09:30:41;;;;;;;4.20;3.95;;;15.70;99.90;;;;;;4951149;28;20092;-87
2021/07/15 09:33:11;;;;;;;3.55;3.40;;;16.10;99.90;;;;;;4960663;28;20509;-85
2021/07/15 09:35:39;;;;;;;3.58;3.28;;;16.20;99.90;;;;;;4954288;28;20050;-85
2021/07/15 09:38:10;;;;;;;4.05;3.83;;;16.20;99.90;;;;;;4964129;28;20036;-85
2021/07/15 09:40:45;;;;;;;3.80;3.60;;;17.20;99.90;;;;;;4955371;28;20039;-85
2021/07/15 09:43:24;;;;;;;4.15;3.60;;;16.20;99.90;;;;;;4963958;28;20896;-86
2021/07/15 09:45:56;;;;;;;4.30;4.00;;;16.30;99.90;;;;;;4967126;28;20757;-86
2021/07/15 09:48:24;;;;;;;3.65;3.55;;;16.30;99.90;;;;;;4959686;28;20083;-87
2021/07/15 09:50:56;;;;;;;3.25;3.08;;;16.40;99.90;;;;;;4966191;28;20044;-86
2021/07/15 09:53:24;;;;;;;4.10;3.90;;;16.50;99.90;;;;;;4967346;28;20111;-86
2021/07/15 09:56:10;;;;;;;4.45;4.15;;;16.70;99.90;;;;;;4967668;28;20036;-87
2021/07/15 09:58:36;;;;;;;4.05;3.75;;;;;;;;;;4968542;28;20043;-87
2021/07/15 10:01:10;;;;;;;3.38;3.22;;;16.10;99.90;;;;;;4966849;28;20035;-87
2021/07/15 10:03:38;;;;;;;3.80;3.60;;;16.90;99.90;;;;;;4967554;28;20039;-84
2021/07/15 10:06:05;;;;;;;3.45;3.35;;;;;;;;;;4966294;28;20788;-86
2021/07/15 10:08:33;;;;;;;3.40;3.25;;;17.00;99.90;;;;;;4969155;28;20039;-87
2021/07/15 10:11:28;;;;;;;3.28;3.08;;;16.90;99.90;;;;;;4963528;28;20040;-86
2021/07/15 10:14:04;;;;;;;3.10;3.00;;;17.30;99.90;;;;;;4964834;28;20044;-85
2021/07/15 10:16:32;;;;;;;3.40;3.20;;;17.50;99.90;;;;;;4969448;28;20034;-84
2021/07/15 10:18:59;;;;;;;3.58;3.38;;;17.60;99.90;;;;;;4963531;28;20036;-86
2021/07/15 10:21:29;;;;;;;3.58;3.28;;;17.70;99.90;;;;;;4968520;28;20109;-87
2021/07/15 10:23:56;;;;;;;3.47;3.28;;;17.90;99.90;;;;;;4980441;28;20102;-86
2021/07/15 10:26:22;;;;;;;3.58;3.30;;;;;;;;;;4956112;28;20047;-87
2021/07/15 10:28:53;;;;;;;3.63;3.45;;;17.90;99.90;;;;;;4966338;28;20091;-86
2021/07/15 10:31:20;;;;;;;3.80;3.60;;;17.90;99.90;;;;;;4976227;28;20040;-85
2021/07/15 10:33:47;;;;;;;3.78;3.58;;;17.80;99.90;;;;;;4976459;28;20043;-86
2021/07/15 10:36:13;;;;;;;3.50;3.10;;;17.90;99.90;;;;;;4974692;28;20051;-87
2021/07/15 10:38:42;;;;;;;3.47;3.28;;;17.90;99.90;;;;;;4970104;28;20043;-87
2021/07/15 10:41:09;;;;;;;3.67;3.47;;;17.90;99.90;;;;;;4965646;28;20024;-87
2021/07/15 10:43:35;;;;;;;3.45;3.20;;;;;;;;;;4960544;28;20092;-87
2021/07/15 10:46:03;;;;;;;4.10;3.22;;;18.00;99.90;;;;;;4965844;28;20024;-87
2021/07/15 10:48:30;;;;;;;3.28;3.13;;;17.80;99.90;;;;;;4966156;28;20138;-86
2021/07/15 10:50:57;;;;;;;3.28;3.08;;;;;;;;;;4961438;28;20075;-89
2021/07/15 10:53:23;;;;;;;4.65;3.40;;;17.80;99.90;;;;;;4971612;28;20047;-87
2021/07/15 10:55:53;;;;;;;3.60;3.40;;;17.80;99.90;;;;;;4965531;28;20048;-86
2021/07/15 10:58:43;;;;;;;3.58;3.20;;;17.80;99.90;;;;;;4961855;28;20051;-87
2021/07/15 11:01:41;;;;;;;3.60;3.45;;;17.70;99.90;;;;;;4968641;28;20899;-86
2021/07/15 11:04:18;;;;;;;3.75;3.55;;;17.90;99.90;;;;;;4966737;28;20110;-85
2021/07/15 11:06:49;;;;;;;3.35;3.17;;;17.60;99.90;;;;;;4966480;28;20052;-85
2021/07/15 11:09:36;;;;;;;3.92;3.72;;;18.20;99.90;;;;;;4967740;28;20833;-85
2021/07/15 11:12:23;;;;;;;5.22;4.82;;;16.90;99.90;;;;;;4961606;28;20047;-85
2021/07/15 11:14:49;;;;;;;3.70;3.50;;;;;;;;;;4975685;28;20064;-85
2021/07/15 11:17:21;;;;;;;4.10;3.63;;;18.00;99.90;;;;;;4974461;28;20039;-85
2021/07/15 11:19:54;;;;;;;3.45;3.25;;;17.70;99.90;;;;;;4975336;28;20043;-85
2021/07/15 11:22:43;;;;;;;4.05;3.67;;;17.80;99.90;;;;;;4974543;28;20050;-85
2021/07/15 11:25:14;;;;;;;3.60;3.40;;;17.80;99.90;;;;;;4976346;28;20039;-85
2021/07/15 11:27:43;;;;;;;3.67;3.38;;;17.80;99.90;;;;;;4976224;28;20074;-85
2021/07/15 11:30:27;;;;;;;4.07;3.70;;;17.10;99.90;;;;;;4975662;28;20043;-85
2021/07/15 11:32:53;;;;;;;4.50;4.20;;;;;;;;;;4968103;28;20046;-85
2021/07/15 11:35:27;;;;;;;3.80;3.60;;;17.50;99.90;;;;;;4974097;28;20050;-87
2021/07/15 11:38:10;;;;;;;3.72;3.53;;;17.60;99.90;;;;;;4967512;28;20040;-88
2021/07/15 11:40:36;;;;;;;3.60;3.40;;;;;;;;;;4966476;28;20083;-87
2021/07/15 11:43:20;;;;;;;3.95;3.75;;;17.60;99.90;;;;;;4972784;28;20068;-87
2021/07/15 11:46:10;;;;;;;3.13;3.03;;;17.60;99.90;;;;;;4961044;28;20047;-87
2021/07/15 11:48:46;;;;;;;3.50;3.40;;;17.40;99.90;;;;;;4971966;28;20071;-87
2021/07/15 11:51:31;;;;;;;4.13;3.72;;;16.80;99.90;;;;;;4970687;28;20050;-86
2021/07/15 11:54:30;;;;;;;3.88;3.50;;;17.70;99.90;;;;;;4972903;28;20074;-87
2021/07/15 11:56:58;;;;;;;3.40;3.30;;;17.50;99.90;;;;;;4964052;28;20027;-85
2021/07/15 11:59:39;;;;;;;3.65;3.45;;;17.50;99.90;;;;;;4971207;28;20060;-87
2021/07/15 12:02:08;;;;;;;3.45;3.35;;;17.90;99.90;;;;;;4975608;28;20039;-85
2021/07/15 12:05:07;;;;;;;3.58;3.30;;;18.20;99.90;;;;;;4971349;28;20623;-87
2021/07/15 12:07:34;;;;;;;3.30;3.20;;;19.10;99.90;;;;;;4963488;28;20055;-87
2021/07/15 12:10:04;;;;;;;3.78;3.47;;;18.90;99.90;;;;;;4973891;28;20059;-87
2021/07/15 12:12:30;;;;;;;3.65;3.25;;;;;;;;;;4972760;28;20099;-85
2021/07/15 12:14:56;;;;;;;3.10;3.00;;;;;;;;;;4971971;28;20795;-86
2021/07/15 12:17:22;;;;;;;3.28;3.13;;;;;;;;;;4965928;28;20032;-86
2021/07/15 12:19:55;;;;;;;3.10;2.85;;;20.00;99.90;;;;;;4969458;28;20093;-86
2021/07/15 12:22:21;;;;;;;3.10;2.90;;;;;;;;;;4974238;28;20079;-86
2021/07/15 12:24:52;;;;;;;3.25;3.10;;;;;;;;;;4973048;28;20047;-87
2021/07/15 12:27:19;;;;;;;3.17;3.00;;;20.20;99.90;;;;;;4975230;28;20087;-87
2021/07/15 12:30:00;;;;;;;2.97;2.88;;;20.10;99.90;;;;;;4971459;28;20047;-87
2021/07/15 12:32:28;;;;;;;3.20;3.10;;;;;;;;;;4964624;28;20059;-86
2021/07/15 12:34:54;;;;;;;3.03;2.92;;;;;;;;;;4973394;28;20050;-87
2021/07/15 12:37:20;;;;;;;3.10;3.00;;;;;;;;;;4965201;28;20036;-87
2021/07/15 12:39:59;;;;;;;2.63;2.42;;;21.90;99.90;;;;;;4969180;28;20060;-86
2021/07/15 12:42:25;;;;;;;2.83;2.72;;;;;;;;;;4963668;28;20040;-86
2021/07/15 12:44:51;;;;;;;3.10;3.00;;;;;;;;;;4969533;28;20043;-87
2021/07/15 12:47:17;;;;;;;3.05;2.85;;;;;;;;;;4968516;28;20059;-86
2021/07/15 12:49:43;;;;;;;3.40;3.20;;;;;;;;;;4975301;28;20047;-87
2021/07/15 12:52:09;;;;;;;3.08;2.97;;;;;;;;;;4982311;28;20075;-87
2021/07/15 12:54:41;;;;;;;3.17;2.97;;;23.10;96.60;;;;;;4979432;28;20058;-91
2021/07/15 12:57:11;;;;;;;3.05;2.95;;;23.40;96.60;;;;;;4984662;28;20039;-91
2021/07/15 12:59:39;;;;;;;3.10;3.00;;;23.60;95.30;;;;;;4981021;28;20027;-87
2021/07/15 13:02:06;;;;;;;3.47;3.28;;;;;;;;;;4973054;28;20103;-88
2021/07/15 13:04:35;;;;;;;3.38;3.20;;;23.00;99.20;;;;;;4972167;28;20096;-85
2021/07/15 13:07:07;;;;;;;3.10;2.90;;;;;;;;;;4956379;29;20044;-85
2021/07/15 13:09:45;;;;;;;3.15;2.95;;;22.80;94.20;;;;;;4955647;29;20748;-85
2021/07/15 13:18:29;;;;;;;2.75;1.95;;;22.00;95.20;;;;;;4970265;28;20055;-83
2021/07/15 13:20:55;;;;;;;1.60;1.50;;;21.50;96.10;;;;;;4970761;28;20051;-87
2021/07/15 13:23:21;;;;;;;2.13;1.58;;;21.40;96.90;;;;;;4966801;28;20063;-85
2021/07/15 13:25:49;;;;;;;1.67;1.58;;;21.20;97.20;;;;;;4970072;28;20051;-85
2021/07/15 13:28:17;;;;;;;5.13;2.22;;;20.90;97.30;;;;;;4971415;28;20050;-85
2021/07/15 13:30:44;;;;;;;2.03;1.60;;;20.70;98.30;;;;;;4972038;28;20047;-85
2021/07/15 13:33:18;;;;;;;1.70;1.60;;;20.50;98.30;;;;;;4972524;28;20044;-85
2021/07/15 13:35:45;;;;;;;1.77;1.50;;;20.10;99.40;;;;;;4972335;28;20138;-85
2021/07/15 13:38:12;;;;;;;1.95;1.58;;;19.80;99.90;;;;;;4971959;28;20047;-84
2021/07/15 13:44:04;;;;;;;1.55;1.40;;;19.60;99.90;;;;;;4971315;28;20068;-84
2021/07/15 13:46:30;;;;;;;1.58;1.48;;;19.60;99.90;;;;;;4972357;28;20047;-84
2021/07/15 13:48:56;;;;;;;2.13;1.30;;;19.50;99.90;;;;;;4972744;28;20047;-83
2021/07/15 13:54:48;;;;;;;1.20;1.10;;;19.10;99.90;;;;;;4971632;28;20039;-84
2021/07/15 14:00:20;;;;;;;2.13;1.42;;;18.90;99.90;;;;;;4967990;28;20088;-83
2021/07/15 14:02:47;;;;;;;2.92;1.35;;;18.80;99.90;;;;;;4970985;28;20716;-83
2021/07/15 14:05:20;;;;;;;1.98;1.30;;;18.80;99.90;;;;;;4973782;28;20047;-84
2021/07/15 14:07:48;;;;;;;1.45;1.20;;;18.90;99.90;;;;;;4960495;28;20040;-84
2021/07/15 14:10:16;;;;;;;2.30;1.42;;;19.00;99.90;;;;;;4961265;28;20044;-84
2021/07/15 14:14:01;;;;;;;2.28;1.88;;;19.00;99.90;;;;;;4781732;28;39019709;-85
2021/07/15 14:17:25;;;;;;;;;;;18.90;99.90;;;;;;5;38269166;42020095;-87
2021/07/15 14:20:40;;;;;;;;;;;18.80;99.90;;;;;;5;36018030;41271711;-87
2021/07/15 14:23:57;;;;;;;;;;;18.70;99.90;;;;;;5;36017034;41270717;-88
2021/07/15 14:27:18;;;;;;;;;;;18.40;99.90;;;;;;5;36016977;41271562;-86
2021/07/15 14:30:38;;;;;;;;;;;17.90;99.90;;;;;;5;36015915;41270309;-87
2021/07/15 14:33:52;;;;;;;;;;;17.70;99.90;;;;;;5;36018204;41270277;-86
2021/07/15 14:37:10;;;;;;;;;;;17.60;99.90;;;;;;5;36017061;41271591;-87
2021/07/15 14:40:31;;;;;;;;;;;17.60;99.90;;;;;;5;36018224;41270764;-86
2021/07/15 14:43:50;;;;;;;;;;;17.70;99.90;;;;;;5;36017903;41269798;-84
2021/07/15 14:47:07;;;;;;;;;;;17.80;99.90;;;;;;5;36017102;41270881;-86
2021/07/15 14:50:27;;;;;;;;;;;17.90;99.90;;;;;;5;36018431;42020929;-86
2021/07/15 14:53:47;;;;;;;;;;;18.00;99.90;;;;;;5;36017376;41270587;-85
2021/07/15 14:57:06;;;;;;;;;;;18.10;99.90;;;;;;5;36016939;41270831;-83
2021/07/15 15:00:21;;;;;;;;;;;18.10;99.90;;;;;;5;36018518;41269919;-86
2021/07/15 15:03:38;;;;;;;;;;;18.20;99.90;;;;;;5;36017403;41272279;-86
2021/07/15 15:06:57;;;;;;;;;;;18.10;99.90;;;;;;5;36015123;41268393;-85
2021/07/15 15:10:17;;;;;;;;;;;18.00;99.90;;;;;;5;36015915;41268354;-86
2021/07/15 15:13:31;;;;;;;;;;;17.80;99.90;;;;;;5;36017211;41270548;-86
2021/07/15 15:16:48;;;;;;;;;;;17.80;99.90;;;;;;5;36016367;41268916;-86
2021/07/15 15:20:11;;;;;;;;;;;17.80;99.90;;;;;;5;36017197;41270964;-86
2021/07/15 15:23:33;;;;;;;;;;;17.90;99.90;;;;;;5;36017569;42020610;-86
2021/07/15 15:26:48;;;;;;;;;;;18.10;99.90;;;;;;5;36017786;41270098;-86
2021/07/15 15:30:06;;;;;;;;;;;18.40;99.90;;;;;;5;36017582;41270765;-86
2021/07/15 15:33:25;;;;;;;;;;;18.50;99.90;;;;;;5;36017731;41269482;-87
2021/07/15 15:36:45;;;;;;;;;;;18.60;99.90;;;;;;5;36017081;41270379;-88
2021/07/15 15:39:59;;;;;;;;;;;18.70;99.90;;;;;;5;36017005;41270403;-87
2021/07/15 15:43:16;;;;;;;;;;;18.50;99.90;;;;;;5;36016756;41269771;-87
2021/07/15 15:46:55;;;;;;;;;;;18.60;99.90;;;;;;5;36016733;41268751;-88
2021/07/15 15:50:15;;;;;;;;;;;18.70;99.90;;;;;;5;36016669;41269971;-87
2021/07/15 15:53:29;;;;;;;;;;;19.10;99.90;;;;;;5;36018663;41269827;-87
2021/07/15 15:56:48;;;;;;;;;;;19.20;99.90;;;;;;5;36015655;42020500;-87
2021/07/15 16:00:08;;;;;;;;;;;19.80;99.90;;;;;;5;36016793;41269359;-86
2021/07/15 16:03:28;;;;;;;;;;;20.40;99.90;;;;;;5;36016429;41269979;-87
2021/07/15 16:06:42;;;;;;;;;;;20.80;99.90;;;;;;5;36016380;41270076;-87
2021/07/15 16:10:02;;;;;;;;;;;20.90;99.90;;;;;;5;36017820;41271159;-86
2021/07/15 16:13:22;;;;;;;;;;;21.00;99.90;;;;;;5;36017561;41270822;-86
2021/07/15 16:16:41;;;;;;;;;;;21.00;99.90;;;;;;5;36016798;41270364;-86
2021/07/15 16:19:55;;;;;;;;;;;21.00;99.90;;;;;;5;36017743;41271991;-86
2021/07/15 16:23:14;;;;;;;;;;;20.70;99.90;;;;;;5;36018351;41270762;-87
2021/07/15 16:26:34;;;;;;;;;;;20.40;99.90;;;;;;5;36017085;41270905;-86
2021/07/15 16:29:55;;;;;;;;;;;20.20;99.90;;;;;;5;36017899;42021540;-85
2021/07/15 16:33:09;;;;;;;;;;;19.80;99.90;;;;;;5;36017250;41270770;-88
2021/07/15 16:36:27;;;;;;;;;;;19.50;99.90;;;;;;5;36017401;41269910;-85
2021/07/15 16:39:48;;;;;;;;;;;19.40;99.90;;;;;;5;36018148;41269803;-85
2021/07/15 16:43:08;;;;;;;;;;;19.40;99.90;;;;;;5;36016191;41271233;-89
2021/07/15 16:46:22;;;;;;;;;;;19.30;99.90;;;;;;5;36018734;41270428;-88
2021/07/15 16:49:39;;;;;;;;;;;19.30;99.90;;;;;;5;36016737;41269937;-87
2021/07/15 16:52:58;;;;;;;;;;;19.40;99.90;;;;;;5;36016571;41270976;-88
2021/07/15 16:56:18;;;;;;;;;;;19.40;99.90;;;;;;5;36017575;41269885;-85
2021/07/15 16:59:32;;;;;;;;;;;19.40;99.90;;;;;;5;36017903;41269687;-87
2021/07/15 17:02:51;;;;;;;;;;;19.30;99.90;;;;;;5;36018731;42021756;-88
2021/07/15 17:06:10;;;;;;;;;;;19.10;99.90;;;;;;5;36016881;41270267;-85
2021/07/15 17:09:30;;;;;;;;;;;19.00;99.90;;;;;;5;36017339;41269418;-87
2021/07/15 17:12:44;;;;;;;;;;;19.00;99.90;;;;;;5;36018317;41272011;-86
2021/07/15 17:16:01;;;;;;;;;;;19.00;99.90;;;;;;5;36017501;41270094;-84
2021/07/15 17:19:20;;;;;;;;;;;18.90;99.90;;;;;;5;36018021;41270484;-87